createdAt,value
2023-04-18T00:02:17.795Z,21.40
2023-04-18T00:05:47.656Z,22.30
2023-04-18T00:12:40.173Z,22.60
2023-04-18T00:16:08.812Z,19.20
2023-04-18T00:19:35.821Z,21.30
2023-04-18T00:23:02.657Z,17.60
2023-04-18T00:26:29.556Z,23.30
2023-04-18T00:29:57.256Z,19.50
2023-04-18T00:33:24.076Z,14.50
2023-04-18T00:36:51.972Z,24.00
2023-04-18T00:40:18.772Z,22.40
2023-04-18T00:43:45.804Z,20.70
2023-04-18T00:47:13.004Z,33.50
2023-04-18T00:50:41.636Z,26.70
2023-04-18T00:54:13.218Z,25.40
2023-04-18T00:57:40.446Z,24.70
2023-04-18T01:01:08.237Z,21.60
2023-04-18T01:04:35.710Z,21.20
2023-04-18T01:08:03.015Z,27.70
2023-04-18T01:11:30.042Z,25.60
2023-04-18T01:14:57.306Z,26.90
2023-04-18T01:18:24.511Z,30.50
2023-04-18T01:21:53.478Z,27.30
2023-04-18T01:25:20.558Z,23.90
2023-04-18T01:28:47.603Z,28.90
2023-04-18T01:32:14.457Z,26.20
2023-04-18T01:35:41.538Z,29.40
2023-04-18T01:39:09.479Z,26.90
2023-04-18T01:42:36.325Z,30.80
2023-04-18T01:46:03.436Z,27.50
2023-04-18T01:49:30.671Z,22.50
2023-04-18T01:52:57.457Z,26.60
2023-04-18T01:56:24.407Z,26.60
2023-04-18T01:59:51.502Z,24.20
2023-04-18T02:03:18.647Z,22.50
2023-04-18T02:06:45.819Z,33.00
2023-04-18T02:10:13.879Z,26.10
2023-04-18T02:13:40.857Z,33.80
2023-04-18T02:17:08.087Z,33.70
2023-04-18T02:20:36.382Z,28.30
2023-04-18T02:24:03.164Z,32.10
2023-04-18T02:27:30.333Z,30.50
2023-04-18T02:30:57.325Z,32.20
2023-04-18T02:34:24.178Z,33.30
2023-04-18T02:37:51.236Z,29.40
2023-04-18T02:41:19.605Z,29.50
2023-04-18T02:44:47.158Z,35.00
2023-04-18T02:48:14.571Z,31.20
2023-04-18T02:51:41.792Z,29.10
2023-04-18T02:55:09.893Z,34.60
2023-04-18T02:58:39.000Z,28.50
2023-04-18T03:02:35.573Z,34.50
2023-04-18T03:06:12.775Z,31.70
2023-04-18T03:09:40.142Z,32.40
2023-04-18T03:13:16.329Z,33.00
2023-04-18T03:16:44.095Z,39.70
2023-04-18T03:20:13.706Z,31.90
2023-04-18T03:23:40.925Z,33.80
2023-04-18T03:27:08.334Z,31.20
2023-04-18T03:30:37.419Z,33.50
2023-04-18T03:34:05.232Z,31.50
2023-04-18T03:37:32.446Z,38.80
2023-04-18T03:41:00.444Z,30.20
2023-04-18T03:44:32.543Z,35.70
2023-04-18T03:47:59.434Z,37.10
2023-04-18T03:51:27.473Z,33.40
2023-04-18T03:54:54.526Z,37.70
2023-04-18T03:58:25.006Z,33.90
2023-04-18T04:01:55.970Z,34.40
2023-04-18T04:05:23.216Z,34.10
2023-04-18T04:08:50.897Z,34.80
2023-04-18T04:12:21.377Z,37.00
2023-04-18T04:15:48.345Z,36.60
2023-04-18T04:19:16.157Z,31.90
2023-04-18T04:22:54.002Z,37.80
2023-04-18T04:26:23.347Z,34.90
2023-04-18T04:29:57.908Z,33.60
2023-04-18T04:33:28.727Z,35.50
2023-04-18T04:37:00.871Z,30.80
2023-04-18T04:40:28.617Z,32.70
2023-04-18T04:44:04.936Z,34.20
2023-04-18T04:47:34.258Z,34.30
2023-04-18T04:51:02.467Z,34.90
2023-04-18T04:54:29.524Z,31.40
2023-04-18T04:57:57.480Z,34.70
2023-04-18T05:01:38.861Z,34.00
2023-04-18T05:05:06.764Z,33.30
2023-04-18T05:08:34.130Z,34.90
2023-04-18T05:12:03.527Z,34.90
2023-04-18T05:15:30.722Z,32.30
2023-04-18T05:18:57.620Z,36.40
2023-04-18T05:22:24.474Z,36.20
2023-04-18T05:25:51.628Z,31.50
2023-04-18T05:29:18.563Z,41.20
2023-04-18T05:32:45.836Z,36.70
2023-04-18T05:36:13.381Z,38.30
2023-04-18T05:39:40.544Z,33.70
2023-04-18T05:43:07.683Z,37.20
2023-04-18T05:46:34.856Z,37.70
2023-04-18T05:50:01.791Z,26.90
2023-04-18T05:53:29.022Z,32.90
2023-04-18T05:56:57.137Z,35.30
2023-04-18T06:00:25.057Z,29.00
2023-04-18T06:03:52.160Z,29.40
2023-04-18T06:07:19.451Z,31.30
2023-04-18T06:10:46.440Z,21.40
2023-04-18T06:14:13.727Z,32.50
2023-04-18T06:17:40.851Z,28.90
2023-04-18T06:21:08.608Z,30.60
2023-04-18T06:24:35.707Z,27.50
2023-04-18T06:28:02.737Z,27.40
2023-04-18T06:31:29.783Z,31.20
2023-04-18T06:34:56.801Z,29.00
2023-04-18T06:38:23.689Z,28.20
2023-04-18T06:41:50.637Z,26.50
2023-04-18T06:45:26.735Z,26.20
2023-04-18T06:48:53.857Z,26.70
2023-04-18T06:52:20.775Z,25.00
2023-04-18T06:55:47.854Z,26.80
2023-04-18T06:59:14.833Z,23.60
2023-04-18T07:02:42.703Z,27.10
2023-04-18T07:06:10.992Z,22.20
2023-04-18T07:09:38.085Z,25.10
2023-04-18T07:13:05.152Z,23.20
2023-04-18T07:16:32.048Z,21.70
2023-04-18T07:19:59.010Z,20.50
2023-04-18T07:23:25.992Z,27.90
2023-04-18T07:26:54.892Z,24.20
2023-04-18T07:30:22.346Z,23.30
2023-04-18T07:33:49.269Z,23.50
2023-04-18T07:37:17.566Z,26.50
2023-04-18T07:40:45.892Z,26.10
2023-04-18T07:44:13.165Z,24.90
2023-04-18T07:47:40.201Z,24.50
2023-04-18T07:51:07.937Z,25.50
2023-04-18T07:54:34.886Z,23.10
2023-04-18T07:58:01.913Z,25.30
2023-04-18T08:01:29.193Z,20.90
2023-04-18T08:04:56.529Z,21.30
2023-04-18T08:08:23.607Z,24.30
2023-04-18T08:11:50.482Z,25.50
2023-04-18T08:15:17.381Z,26.00
2023-04-18T08:18:44.302Z,27.00
2023-04-18T08:22:12.157Z,29.80
2023-04-18T08:25:38.958Z,23.90
2023-04-18T08:29:06.494Z,25.80
2023-04-18T08:32:34.011Z,27.40
2023-04-18T08:36:01.278Z,24.70
2023-04-18T08:39:28.257Z,25.60
2023-04-18T08:42:56.690Z,23.90
2023-04-18T08:46:24.106Z,25.50
2023-04-18T08:49:52.298Z,27.90
2023-04-18T08:53:19.687Z,27.10
2023-04-18T08:56:46.726Z,25.60
2023-04-18T09:00:15.795Z,25.80
2023-04-18T09:03:44.249Z,23.50
2023-04-18T09:07:12.635Z,21.80
2023-04-18T09:10:43.055Z,24.60
2023-04-18T09:14:24.638Z,25.60
2023-04-18T09:17:54.023Z,25.50
2023-04-18T09:21:21.772Z,22.10
2023-04-18T09:24:58.654Z,23.70
2023-04-18T09:28:28.200Z,21.20
2023-04-18T09:32:02.850Z,20.10
2023-04-18T09:35:30.160Z,23.20
2023-04-18T09:38:57.465Z,20.50
2023-04-18T09:42:27.435Z,23.70
2023-04-18T09:45:55.584Z,15.10
2023-04-18T09:49:23.441Z,16.20
2023-04-18T09:52:51.411Z,19.90
2023-04-18T09:56:26.613Z,14.60
2023-04-18T09:59:58.795Z,18.40
2023-04-18T10:03:34.571Z,18.30
2023-04-18T10:07:01.951Z,17.50
2023-04-18T10:10:29.053Z,18.20
2023-04-18T10:13:59.847Z,20.50
2023-04-18T10:17:29.764Z,25.00
2023-04-18T10:21:04.250Z,18.80
2023-04-18T10:24:57.235Z,21.30
2023-04-18T10:28:24.553Z,21.50
2023-04-18T10:31:51.751Z,15.50
2023-04-18T10:35:22.208Z,20.40
2023-04-18T10:38:53.028Z,21.60
2023-04-18T10:42:19.995Z,22.30
2023-04-18T10:46:10.105Z,18.80
2023-04-18T10:49:53.896Z,22.50
2023-04-18T10:56:55.225Z,21.60
2023-04-18T11:00:23.772Z,20.80
2023-04-18T11:03:50.895Z,21.20
2023-04-18T11:07:18.179Z,21.20
2023-04-18T11:10:57.770Z,19.50
2023-04-18T11:17:58.950Z,17.80
2023-04-18T11:21:30.473Z,15.50
2023-04-18T11:25:02.246Z,24.20
2023-04-18T11:28:29.728Z,17.00
2023-04-18T11:31:58.648Z,21.50
2023-04-18T11:35:26.337Z,18.40
2023-04-18T11:38:53.598Z,17.90
2023-04-18T11:42:21.453Z,17.30
2023-04-18T11:45:55.867Z,18.00
2023-04-18T11:49:31.611Z,19.80
2023-04-18T11:52:59.003Z,17.20
2023-04-18T11:56:26.265Z,16.00
2023-04-18T11:59:56.284Z,21.20
2023-04-18T12:03:25.139Z,20.80
2023-04-18T12:06:53.924Z,20.70
2023-04-18T12:10:29.875Z,19.40
2023-04-18T12:13:59.558Z,16.80
2023-04-18T12:17:28.790Z,20.70
2023-04-18T12:21:02.570Z,18.00
2023-04-18T12:24:29.889Z,21.20
2023-04-18T12:27:59.847Z,19.70
2023-04-18T12:31:28.751Z,16.70
2023-04-18T12:34:56.557Z,16.80
2023-04-18T12:38:24.421Z,23.80
2023-04-18T12:41:51.697Z,24.80
2023-04-18T12:45:19.862Z,16.70
2023-04-18T12:48:46.983Z,16.60
2023-04-18T12:52:13.841Z,17.70
2023-04-18T12:55:40.894Z,16.90
2023-04-18T12:59:07.768Z,19.30
2023-04-18T13:02:37.273Z,16.00
2023-04-18T13:09:31.842Z,21.00
2023-04-18T13:12:58.594Z,18.70
2023-04-18T13:16:25.610Z,15.60
2023-04-18T13:19:53.090Z,19.50
2023-04-18T13:23:19.990Z,19.30
2023-04-18T13:26:47.050Z,15.60
2023-04-18T13:30:14.907Z,24.10
2023-04-18T13:33:42.297Z,20.20
2023-04-18T13:37:09.350Z,18.20
2023-04-18T13:40:38.796Z,15.50
2023-04-18T13:44:06.380Z,15.40
2023-04-18T13:47:33.430Z,15.90
2023-04-18T13:51:00.455Z,18.50
2023-04-18T13:54:28.584Z,17.80
2023-04-18T13:57:55.893Z,15.10
2023-04-18T14:01:23.067Z,17.70
2023-04-18T14:04:54.857Z,17.90
2023-04-18T14:08:21.854Z,16.00
2023-04-18T14:11:48.696Z,13.90
2023-04-18T14:15:16.800Z,18.60
2023-04-18T14:18:43.757Z,12.80
2023-04-18T14:22:11.045Z,14.20
2023-04-18T14:25:38.063Z,16.30
2023-04-18T14:29:05.364Z,18.80
2023-04-18T14:32:32.585Z,19.30
2023-04-18T14:35:59.590Z,17.40
2023-04-18T14:39:26.555Z,16.80
2023-04-18T14:42:53.550Z,22.70
2023-04-18T14:46:21.791Z,19.50
2023-04-18T14:49:48.732Z,18.60
2023-04-18T14:53:15.900Z,19.00
2023-04-18T14:56:42.908Z,19.40
2023-04-18T15:00:12.726Z,15.60
2023-04-18T15:03:40.425Z,18.80
2023-04-18T15:07:07.724Z,21.10
2023-04-18T15:10:34.541Z,17.40
2023-04-18T15:14:01.478Z,46.40
2023-04-18T15:17:29.324Z,38.90
2023-04-18T15:20:57.089Z,15.20
2023-04-18T15:24:24.146Z,14.20
2023-04-18T15:27:51.178Z,17.90
2023-04-18T15:31:20.802Z,20.70
2023-04-18T15:34:49.996Z,30.50
2023-04-18T15:38:19.326Z,20.00
2023-04-18T15:41:48.171Z,20.40
2023-04-18T15:45:16.544Z,20.20
2023-04-18T15:48:45.805Z,24.30
2023-04-18T15:52:16.265Z,17.00
2023-04-18T15:55:47.929Z,39.50
2023-04-18T15:59:17.586Z,23.30
2023-04-18T16:02:46.838Z,23.70
2023-04-18T16:06:15.689Z,22.30
2023-04-18T16:09:44.231Z,24.00
2023-04-18T16:13:12.416Z,23.90
2023-04-18T16:16:41.514Z,16.80
2023-04-18T16:20:11.834Z,29.20
2023-04-18T16:23:39.550Z,13.30
2023-04-18T16:27:07.260Z,24.90
2023-04-18T16:30:35.815Z,42.60
2023-04-18T16:34:04.988Z,48.70
2023-04-18T16:37:33.824Z,26.60
2023-04-18T16:41:02.154Z,17.20
2023-04-18T16:44:33.632Z,22.40
2023-04-18T16:48:02.556Z,29.70
2023-04-18T16:51:34.081Z,26.00
2023-04-18T16:55:03.318Z,32.20
2023-04-18T17:02:00.206Z,28.50
2023-04-18T17:05:28.137Z,26.30
2023-04-18T17:08:57.862Z,32.60
2023-04-18T17:12:29.776Z,20.30
2023-04-18T17:15:58.098Z,33.90
2023-04-18T17:19:26.810Z,36.20
2023-04-18T17:22:54.512Z,20.80
2023-04-18T17:26:24.323Z,25.10
2023-04-18T17:29:51.277Z,27.30
2023-04-18T17:33:18.295Z,26.70
2023-04-18T17:36:45.342Z,35.50
2023-04-18T17:40:13.974Z,33.50
2023-04-18T17:43:41.261Z,23.90
2023-04-18T17:47:08.516Z,36.50
2023-04-18T17:50:37.059Z,29.80
2023-04-18T17:54:05.535Z,34.40
2023-04-18T17:57:33.787Z,29.90
2023-04-18T18:01:00.635Z,36.50
2023-04-18T18:04:27.981Z,28.70
2023-04-18T18:07:56.297Z,24.70
2023-04-18T18:11:24.413Z,20.60
2023-04-18T18:14:51.545Z,22.20
2023-04-18T18:18:19.126Z,20.40
2023-04-18T18:21:47.555Z,25.80
2023-04-18T18:25:15.218Z,29.80
2023-04-18T18:28:43.583Z,28.00
2023-04-18T18:32:12.211Z,16.20
2023-04-18T18:35:44.340Z,18.20
2023-04-18T18:39:14.797Z,19.20
2023-04-18T18:42:45.749Z,16.90
2023-04-18T18:46:13.182Z,23.00
2023-04-18T18:49:41.144Z,16.80
2023-04-18T18:53:09.837Z,16.60
2023-04-18T18:56:38.904Z,20.80
2023-04-18T19:00:12.030Z,26.80
2023-04-18T19:03:41.074Z,19.20
2023-04-18T19:07:09.352Z,19.50
2023-04-18T19:10:36.642Z,21.10
2023-04-18T19:14:04.288Z,18.90
2023-04-18T19:17:32.053Z,30.40
2023-04-18T19:21:00.174Z,25.20
2023-04-18T19:24:28.294Z,23.80
2023-04-18T19:27:55.416Z,21.60
2023-04-18T19:31:22.406Z,22.70
2023-04-18T19:34:50.927Z,22.40
2023-04-18T19:38:18.108Z,25.80
2023-04-18T19:41:46.113Z,22.40
2023-04-18T19:45:15.188Z,22.40
2023-04-18T19:48:42.084Z,22.30
2023-04-18T19:52:09.265Z,22.60
2023-04-18T19:55:36.314Z,15.60
2023-04-18T19:59:06.110Z,22.20
2023-04-18T20:05:58.886Z,30.70
2023-04-18T20:09:25.803Z,25.70
2023-04-18T20:12:52.706Z,23.00
2023-04-18T20:16:19.624Z,24.80
2023-04-18T20:19:49.851Z,24.50
2023-04-18T20:23:16.894Z,19.80
2023-04-18T20:26:43.995Z,22.40
2023-04-18T20:30:11.841Z,20.30
2023-04-18T20:33:38.947Z,21.30
2023-04-18T20:37:07.696Z,24.10
2023-04-18T20:40:35.153Z,20.80
2023-04-18T20:44:05.193Z,15.70
2023-04-18T20:47:33.454Z,19.60
2023-04-18T20:51:00.416Z,18.40
2023-04-18T20:54:27.562Z,18.10
2023-04-18T20:57:54.493Z,20.70
2023-04-18T21:01:21.869Z,19.80
2023-04-18T21:04:49.385Z,21.40
2023-04-18T21:08:16.532Z,20.00
2023-04-18T21:11:43.837Z,21.00
2023-04-18T21:15:12.746Z,21.80
2023-04-18T21:18:40.621Z,23.30
2023-04-18T21:22:11.694Z,21.50
2023-04-18T21:25:38.613Z,23.90
2023-04-18T21:29:06.632Z,17.40
2023-04-18T21:32:33.473Z,17.30
2023-04-18T21:36:00.645Z,21.90
2023-04-18T21:39:28.287Z,20.70
2023-04-18T21:42:55.216Z,20.20
2023-04-18T21:46:23.118Z,16.50
2023-04-18T21:49:50.706Z,19.00
2023-04-18T21:53:18.190Z,19.20
2023-04-18T21:56:44.965Z,17.20
2023-04-18T22:00:13.787Z,22.10
2023-04-18T22:03:41.014Z,21.90
2023-04-18T22:07:08.842Z,18.30
2023-04-18T22:10:36.571Z,21.30
2023-04-18T22:14:06.871Z,19.80
2023-04-18T22:17:38.063Z,21.20
2023-04-18T22:21:05.277Z,21.10
2023-04-18T22:24:32.413Z,21.90
2023-04-18T22:27:59.453Z,17.40
2023-04-18T22:31:26.272Z,17.90
2023-04-18T22:34:53.314Z,14.70
2023-04-18T22:38:20.255Z,13.30
2023-04-18T22:41:47.154Z,16.60
2023-04-18T22:45:14.602Z,10.20
2023-04-18T22:48:41.471Z,14.70
2023-04-18T22:52:09.120Z,13.50
2023-04-18T22:55:38.568Z,11.60
2023-04-18T22:59:05.526Z,13.70
2023-04-18T23:02:32.691Z,13.00
2023-04-18T23:05:59.854Z,12.80
2023-04-18T23:09:27.632Z,13.30
2023-04-18T23:12:54.804Z,11.80
2023-04-18T23:16:21.692Z,14.70
2023-04-18T23:19:48.546Z,18.70
2023-04-18T23:23:15.412Z,13.40
2023-04-18T23:26:42.463Z,14.30
2023-04-18T23:30:11.653Z,17.10
2023-04-18T23:33:38.439Z,16.60
2023-04-18T23:37:05.243Z,14.80
2023-04-18T23:40:32.338Z,9.50
2023-04-18T23:43:59.916Z,16.60
2023-04-18T23:47:26.967Z,9.10
2023-04-18T23:50:54.468Z,11.70
2023-04-18T23:54:21.371Z,7.90
2023-04-18T23:57:48.364Z,8.60
